createdAt,value
2023-09-07T00:02:23.591Z,1.02
2023-09-07T00:05:02.077Z,1.27
2023-09-07T00:07:28.810Z,1.40
2023-09-07T00:10:02.073Z,1.48
2023-09-07T00:12:28.741Z,1.42
2023-09-07T00:15:03.019Z,1.33
2023-09-07T00:17:36.063Z,1.25
2023-09-07T00:20:10.696Z,1.83
2023-09-07T00:25:31.106Z,1.80
2023-09-07T00:28:04.122Z,1.40
2023-09-07T00:30:37.067Z,1.23
2023-09-07T00:33:03.969Z,1.80
2023-09-07T00:35:37.023Z,1.50
2023-09-07T00:38:04.086Z,1.38
2023-09-07T00:40:38.142Z,1.33
2023-09-07T00:43:05.979Z,1.58
2023-09-07T00:45:39.028Z,1.60
2023-09-07T00:48:06.536Z,2.03
2023-09-07T00:50:54.005Z,1.80
2023-09-07T00:53:35.044Z,1.20
2023-09-07T00:56:03.033Z,1.40
2023-09-07T00:58:37.026Z,1.30
2023-09-07T01:01:04.393Z,1.60
2023-09-07T01:03:38.142Z,1.98
2023-09-07T01:06:07.715Z,1.50
2023-09-07T01:08:47.129Z,1.58
2023-09-07T01:11:18.577Z,1.48
2023-09-07T01:13:52.153Z,1.40
2023-09-07T01:16:19.755Z,1.25
2023-09-07T01:18:53.086Z,1.48
2023-09-07T01:21:27.094Z,1.52
2023-09-07T01:24:00.277Z,1.48
2023-09-07T01:26:34.017Z,1.40
2023-09-07T01:29:02.163Z,1.57
2023-09-07T01:31:36.100Z,1.42
2023-09-07T01:34:02.797Z,1.77
2023-09-07T01:36:37.053Z,1.88
2023-09-07T01:39:09.572Z,1.10
2023-09-07T01:41:36.320Z,1.63
2023-09-07T01:44:10.128Z,1.40
2023-09-07T01:46:46.124Z,1.60
2023-09-07T01:49:12.852Z,1.60
2023-09-07T01:51:46.039Z,1.30
2023-09-07T01:54:12.726Z,1.90
2023-09-07T01:56:42.304Z,1.67
2023-09-07T01:59:16.101Z,1.40
2023-09-07T02:01:42.761Z,1.67
2023-09-07T02:04:16.027Z,2.28
2023-09-07T02:06:42.722Z,2.10
2023-09-07T02:09:16.031Z,1.63
2023-09-07T02:11:42.639Z,2.13
2023-09-07T02:14:17.138Z,1.85
2023-09-07T02:19:11.242Z,1.67
2023-09-07T02:21:44.027Z,1.42
2023-09-07T02:24:24.018Z,1.67
2023-09-07T02:26:58.033Z,1.63
2023-09-07T02:29:24.654Z,1.33
2023-09-07T02:31:58.042Z,1.10
2023-09-07T02:34:24.802Z,1.42
2023-09-07T02:36:58.034Z,1.80
2023-09-07T02:39:27.492Z,1.70
2023-09-07T02:42:01.101Z,1.38
2023-09-07T02:44:27.733Z,1.30
2023-09-07T02:47:01.030Z,1.60
2023-09-07T02:49:27.647Z,1.90
2023-09-07T02:52:01.041Z,1.65
2023-09-07T02:54:27.766Z,1.50
2023-09-07T02:56:54.365Z,1.45
2023-09-07T02:59:28.033Z,1.58
2023-09-07T03:01:54.712Z,1.60
2023-09-07T03:04:28.034Z,1.52
2023-09-07T03:06:54.623Z,1.40
2023-09-07T03:09:28.029Z,1.30
2023-09-07T03:11:54.773Z,1.50
2023-09-07T03:14:28.042Z,1.35
2023-09-07T03:16:55.709Z,1.90
2023-09-07T03:19:29.103Z,1.70
2023-09-07T03:22:02.100Z,1.65
2023-09-07T03:24:36.042Z,3.22
2023-09-07T03:27:09.032Z,1.75
2023-09-07T03:29:36.551Z,1.52
2023-09-07T03:32:10.119Z,1.73
2023-09-07T03:34:36.841Z,1.50
2023-09-07T03:37:10.166Z,1.92
2023-09-07T03:39:36.774Z,1.80
2023-09-07T03:42:10.029Z,1.60
2023-09-07T03:44:37.002Z,1.80
2023-09-07T03:47:11.076Z,1.63
2023-09-07T03:49:37.745Z,1.50
2023-09-07T03:52:04.553Z,1.40
2023-09-07T03:54:39.015Z,1.40
2023-09-07T03:57:05.683Z,1.80
2023-09-07T03:59:39.026Z,1.35
2023-09-07T04:02:05.807Z,1.38
2023-09-07T04:04:39.067Z,1.70
2023-09-07T04:07:05.706Z,1.38
2023-09-07T04:09:39.045Z,1.60
2023-09-07T04:12:06.255Z,1.73
2023-09-07T04:14:39.142Z,1.67
2023-09-07T04:17:13.128Z,1.70
2023-09-07T04:19:46.085Z,1.98
2023-09-07T04:22:19.046Z,1.38
2023-09-07T04:24:49.596Z,1.45
2023-09-07T04:27:29.122Z,2.22
2023-09-07T04:29:55.787Z,1.55
2023-09-07T04:32:29.058Z,1.60
2023-09-07T04:35:00.441Z,1.60
2023-09-07T04:37:34.100Z,1.90
2023-09-07T04:40:00.729Z,2.33
2023-09-07T04:42:34.100Z,1.73
2023-09-07T04:45:00.738Z,1.88
2023-09-07T04:47:34.097Z,1.77
2023-09-07T04:50:00.836Z,2.20
2023-09-07T04:52:27.491Z,1.92
2023-09-07T04:55:01.052Z,1.95
2023-09-07T04:57:27.662Z,2.45
2023-09-07T04:59:54.369Z,1.90
2023-09-07T05:02:34.087Z,2.15
2023-09-07T05:05:00.760Z,1.70
2023-09-07T05:07:34.077Z,1.98
2023-09-07T05:10:00.838Z,1.90
2023-09-07T05:12:34.058Z,1.83
2023-09-07T05:15:01.636Z,1.90
2023-09-07T05:17:35.146Z,1.75
2023-09-07T05:20:01.891Z,1.75
2023-09-07T05:22:35.073Z,1.83
2023-09-07T05:25:16.069Z,2.03
2023-09-07T05:27:42.737Z,2.10
2023-09-07T05:30:16.040Z,1.73
2023-09-07T05:32:49.043Z,1.77
2023-09-07T05:35:17.830Z,1.70
2023-09-07T05:37:51.101Z,2.03
2023-09-07T05:40:17.717Z,1.80
2023-09-07T05:42:51.087Z,1.70
2023-09-07T05:45:17.769Z,1.55
2023-09-07T05:47:51.092Z,1.75
2023-09-07T05:50:17.792Z,1.52
2023-09-07T05:52:51.037Z,1.60
2023-09-07T05:55:17.870Z,2.33
2023-09-07T05:57:51.038Z,1.83
2023-09-07T06:00:18.312Z,1.85
2023-09-07T06:02:53.199Z,2.10
2023-09-07T06:05:20.007Z,2.17
2023-09-07T06:07:53.054Z,1.80
2023-09-07T06:10:20.544Z,1.83
2023-09-07T06:12:54.074Z,1.98
2023-09-07T06:15:20.757Z,4.03
2023-09-07T06:17:54.061Z,2.00
2023-09-07T06:20:20.813Z,1.70
2023-09-07T06:23:01.130Z,2.40
2023-09-07T06:25:28.521Z,1.40
2023-09-07T06:27:55.250Z,1.73
2023-09-07T06:30:28.117Z,1.30
2023-09-07T06:32:54.864Z,1.48
2023-09-07T06:35:28.103Z,1.60
2023-09-07T06:37:54.842Z,1.60
2023-09-07T06:40:21.489Z,1.45
2023-09-07T06:42:55.104Z,1.80
2023-09-07T06:45:22.685Z,1.77
2023-09-07T06:47:58.076Z,2.00
2023-09-07T06:50:31.138Z,2.03
2023-09-07T06:53:04.079Z,1.80
2023-09-07T06:55:31.441Z,1.98
2023-09-07T06:58:05.087Z,2.03
2023-09-07T07:00:31.829Z,1.93
2023-09-07T07:03:06.102Z,2.15
2023-09-07T07:05:35.077Z,1.70
2023-09-07T07:08:08.107Z,1.90
2023-09-07T07:10:41.114Z,3.22
2023-09-07T07:13:14.073Z,2.28
2023-09-07T07:15:40.673Z,2.83
2023-09-07T07:18:09.731Z,2.38
2023-09-07T07:20:44.059Z,2.85
2023-09-07T07:23:31.293Z,1.95
2023-09-07T07:26:05.101Z,1.70
2023-09-07T07:28:38.081Z,1.88
2023-09-07T07:31:11.607Z,1.90
2023-09-07T07:33:45.103Z,2.10
2023-09-07T07:36:18.098Z,1.80
2023-09-07T07:38:51.121Z,2.05
2023-09-07T07:41:24.074Z,1.90
2023-09-07T07:43:50.782Z,1.70
2023-09-07T07:46:24.170Z,1.77
2023-09-07T07:48:50.808Z,2.05
2023-09-07T07:51:17.607Z,2.03
2023-09-07T07:53:51.127Z,2.20
2023-09-07T07:56:25.123Z,1.90
2023-09-07T07:58:58.118Z,1.80
2023-09-07T08:01:27.074Z,2.00
2023-09-07T08:03:53.815Z,1.92
2023-09-07T08:06:27.076Z,1.90
2023-09-07T08:08:53.738Z,2.60
2023-09-07T08:11:29.139Z,1.90
2023-09-07T08:13:55.819Z,1.75
2023-09-07T08:16:30.224Z,1.77
2023-09-07T08:19:04.214Z,2.45
2023-09-07T08:21:30.830Z,1.88
2023-09-07T08:24:04.165Z,2.30
2023-09-07T08:26:39.382Z,2.30
2023-09-07T08:29:07.973Z,2.17
2023-09-07T08:31:35.097Z,2.33
2023-09-07T08:34:13.145Z,1.75
2023-09-07T08:36:46.124Z,2.35
2023-09-07T08:39:20.214Z,2.50
2023-09-07T08:42:00.768Z,2.28
2023-09-07T08:44:37.108Z,2.38
2023-09-07T08:47:05.828Z,1.92
2023-09-07T08:49:33.867Z,2.95
2023-09-07T08:52:08.231Z,2.28
2023-09-07T08:57:12.113Z,2.88
2023-09-07T08:59:38.704Z,2.30
2023-09-07T09:02:17.164Z,2.70
2023-09-07T09:04:44.055Z,2.45
2023-09-07T09:07:17.074Z,2.30
2023-09-07T09:09:43.687Z,2.33
2023-09-07T09:12:18.146Z,2.38
2023-09-07T09:17:16.351Z,2.13
2023-09-07T09:19:50.115Z,2.47
2023-09-07T09:22:23.105Z,2.65
2023-09-07T09:25:03.084Z,2.45
2023-09-07T09:27:29.675Z,2.63
2023-09-07T09:30:04.097Z,3.20
2023-09-07T09:35:05.114Z,2.35
2023-09-07T09:37:32.006Z,2.83
2023-09-07T09:40:08.083Z,3.00
2023-09-07T09:42:34.842Z,3.70
2023-09-07T09:45:08.094Z,3.00
2023-09-07T09:47:44.154Z,3.00
2023-09-07T09:50:12.660Z,2.60
2023-09-07T09:52:46.124Z,2.53
2023-09-07T09:55:14.320Z,2.70
2023-09-07T09:57:48.106Z,2.67
2023-09-07T10:00:27.195Z,2.70
2023-09-07T10:03:20.278Z,2.55
2023-09-07T10:05:47.648Z,2.55
2023-09-07T10:08:16.242Z,2.45
2023-09-07T10:10:51.153Z,2.70
2023-09-07T10:13:30.853Z,2.22
2023-09-07T10:16:09.225Z,2.53
2023-09-07T10:18:39.658Z,2.38
2023-09-07T10:21:14.110Z,2.25
2023-09-07T10:26:29.114Z,2.55
2023-09-07T10:29:11.142Z,2.05
2023-09-07T10:31:53.835Z,2.15
2023-09-07T10:34:30.126Z,2.50
2023-09-07T10:36:57.491Z,1.90
2023-09-07T10:39:31.112Z,2.40
2023-09-07T10:41:57.835Z,2.22
2023-09-07T10:44:35.110Z,1.80
2023-09-07T10:47:01.826Z,2.20
2023-09-07T10:49:35.103Z,2.30
2023-09-07T10:52:08.138Z,1.70
2023-09-07T10:54:35.119Z,2.38
2023-09-07T10:57:21.120Z,1.65
2023-09-07T10:59:54.129Z,2.13
2023-09-07T11:02:27.343Z,2.35
2023-09-07T11:05:07.106Z,1.60
2023-09-07T11:07:34.689Z,2.00
2023-09-07T11:10:01.609Z,2.20
2023-09-07T11:12:35.127Z,2.03
2023-09-07T11:15:02.288Z,1.63
2023-09-07T11:17:36.175Z,1.90
2023-09-07T11:20:07.234Z,2.50
2023-09-07T11:22:55.254Z,1.88
2023-09-07T11:25:32.380Z,1.80
2023-09-07T11:28:07.396Z,2.08
2023-09-07T11:30:34.757Z,2.00
2023-09-07T11:33:15.183Z,1.90
2023-09-07T11:35:42.589Z,2.30
2023-09-07T11:38:18.155Z,2.38
2023-09-07T11:40:55.124Z,1.90
2023-09-07T11:43:21.748Z,2.35
2023-09-07T11:45:55.260Z,1.95
2023-09-07T11:48:22.066Z,2.13
2023-09-07T11:50:55.130Z,2.33
2023-09-07T11:53:21.819Z,1.70
2023-09-07T11:55:55.118Z,2.10
2023-09-07T11:58:21.774Z,1.83
2023-09-07T12:00:55.130Z,2.10
2023-09-07T12:03:21.820Z,2.00
2023-09-07T12:05:55.211Z,2.13
2023-09-07T12:08:28.190Z,2.00
2023-09-07T12:10:54.843Z,2.67
2023-09-07T12:13:28.160Z,2.30
2023-09-07T12:15:54.969Z,2.22
2023-09-07T12:18:29.332Z,2.00
2023-09-07T12:20:58.373Z,2.22
2023-09-07T12:23:38.149Z,2.00
2023-09-07T12:26:11.250Z,2.13
2023-09-07T12:28:44.161Z,1.92
2023-09-07T12:31:12.362Z,2.15
2023-09-07T12:33:39.432Z,1.90
2023-09-07T12:36:17.152Z,2.03
2023-09-07T12:38:50.146Z,2.40
2023-09-07T12:41:17.013Z,2.00
2023-09-07T12:43:53.144Z,2.28
2023-09-07T12:46:19.826Z,2.00
2023-09-07T12:48:53.135Z,1.90
2023-09-07T12:51:26.145Z,2.10
2023-09-07T12:53:52.815Z,2.03
2023-09-07T12:56:26.148Z,1.92
2023-09-07T12:58:53.588Z,1.80
2023-09-07T13:01:27.204Z,1.92
2023-09-07T13:03:53.865Z,1.90
2023-09-07T13:06:27.143Z,2.30
2023-09-07T13:08:53.738Z,1.70
2023-09-07T13:11:27.151Z,1.90
2023-09-07T13:13:53.992Z,2.03
2023-09-07T13:16:27.291Z,2.05
2023-09-07T13:18:53.982Z,1.70
2023-09-07T13:21:27.197Z,1.88
2023-09-07T13:24:14.157Z,1.98
2023-09-07T13:26:48.144Z,2.10
2023-09-07T13:29:15.064Z,2.40
2023-09-07T13:31:48.178Z,2.25
2023-09-07T13:34:21.138Z,2.08
2023-09-07T13:36:47.770Z,1.75
2023-09-07T13:39:21.151Z,2.40
2023-09-07T13:41:47.780Z,1.63
2023-09-07T13:44:22.163Z,2.05
2023-09-07T13:46:48.843Z,1.88
2023-09-07T13:49:22.169Z,1.90
2023-09-07T13:51:48.855Z,1.97
2023-09-07T13:54:22.166Z,1.85
2023-09-07T13:56:48.892Z,2.10
2023-09-07T13:59:22.284Z,2.05
2023-09-07T14:01:50.322Z,2.20
2023-09-07T14:04:23.199Z,1.83
2023-09-07T14:06:50.054Z,1.70
2023-09-07T14:09:23.238Z,2.10
2023-09-07T14:11:57.170Z,2.00
2023-09-07T14:14:30.338Z,2.50
2023-09-07T14:16:59.126Z,1.77
2023-09-07T14:19:27.832Z,1.92
2023-09-07T14:22:01.210Z,2.10
2023-09-07T14:24:41.181Z,2.00
2023-09-07T14:27:14.299Z,1.88
2023-09-07T14:29:47.187Z,2.22
2023-09-07T14:32:13.808Z,2.05
2023-09-07T14:34:47.176Z,1.98
2023-09-07T14:37:13.807Z,1.83
2023-09-07T14:39:53.158Z,1.98
2023-09-07T14:42:20.781Z,2.65
2023-09-07T14:44:55.187Z,2.38
2023-09-07T14:50:00.231Z,1.95
2023-09-07T14:52:26.931Z,2.15
2023-09-07T14:55:00.172Z,1.90
2023-09-07T14:57:27.122Z,2.10
2023-09-07T15:00:00.206Z,1.90
2023-09-07T15:02:33.228Z,2.78
2023-09-07T15:05:00.184Z,2.30
2023-09-07T15:07:33.204Z,1.98
2023-09-07T15:10:06.184Z,1.90
2023-09-07T15:12:39.173Z,2.13
2023-09-07T15:15:06.361Z,2.08
2023-09-07T15:17:39.300Z,2.10
2023-09-07T15:20:14.220Z,1.95
2023-09-07T15:22:47.220Z,3.05
2023-09-07T15:25:36.262Z,2.15
2023-09-07T15:28:03.146Z,2.17
2023-09-07T15:30:36.173Z,2.30
2023-09-07T15:33:02.883Z,2.10
2023-09-07T15:35:36.254Z,2.03
2023-09-07T15:38:03.438Z,2.43
2023-09-07T15:40:37.198Z,2.22
2023-09-07T15:43:03.974Z,1.90
2023-09-07T15:45:37.206Z,1.70
2023-09-07T15:48:03.939Z,2.10
2023-09-07T15:50:37.241Z,2.33
2023-09-07T15:53:04.206Z,2.30
2023-09-07T15:55:37.190Z,2.00
2023-09-07T15:58:11.185Z,1.83
2023-09-07T16:00:44.230Z,2.08
2023-09-07T16:03:11.050Z,2.20
2023-09-07T16:05:37.843Z,1.92
2023-09-07T16:08:11.211Z,2.45
2023-09-07T16:10:46.183Z,1.60
2023-09-07T16:13:19.197Z,1.90
2023-09-07T16:15:45.829Z,2.30
2023-09-07T16:18:20.296Z,1.98
2023-09-07T16:20:47.822Z,2.10
2023-09-07T16:23:21.271Z,2.00
2023-09-07T16:25:54.600Z,2.47
2023-09-07T16:28:28.264Z,1.85
2023-09-07T16:30:54.885Z,2.30
2023-09-07T16:33:28.276Z,2.03
2023-09-07T16:35:54.947Z,2.07
2023-09-07T16:38:29.212Z,2.53
2023-09-07T16:43:36.198Z,1.90
2023-09-07T16:46:14.345Z,2.20
2023-09-07T16:48:41.108Z,2.50
2023-09-07T16:51:14.209Z,2.00
2023-09-07T16:53:47.434Z,2.20
2023-09-07T16:56:18.096Z,2.25
2023-09-07T16:59:14.776Z,2.55
2023-09-07T17:01:37.897Z,2.33
2023-09-07T17:04:11.250Z,2.03
2023-09-07T17:06:37.928Z,2.10
2023-09-07T17:09:11.194Z,2.10
2023-09-07T17:11:45.247Z,2.28
2023-09-07T17:14:18.206Z,2.30
2023-09-07T17:16:44.827Z,2.13
2023-09-07T17:19:18.211Z,2.63
2023-09-07T17:21:51.197Z,2.28
2023-09-07T17:24:31.474Z,2.60
2023-09-07T17:27:04.830Z,2.10
2023-09-07T17:29:38.294Z,2.20
2023-09-07T17:32:05.299Z,2.40
2023-09-07T17:34:34.331Z,2.25
2023-09-07T17:37:07.237Z,2.72
2023-09-07T17:39:37.475Z,2.78
2023-09-07T17:42:11.276Z,2.63
2023-09-07T17:44:37.944Z,3.13
2023-09-07T17:47:11.254Z,2.58
2023-09-07T17:49:38.405Z,2.63
2023-09-07T17:52:12.224Z,2.63
2023-09-07T17:54:38.828Z,2.55
2023-09-07T17:57:12.306Z,2.90
2023-09-07T17:59:38.970Z,2.80
2023-09-07T18:02:26.383Z,2.97
2023-09-07T18:04:56.199Z,2.83
2023-09-07T18:07:23.230Z,2.55
2023-09-07T18:09:56.225Z,2.58
2023-09-07T18:12:22.869Z,2.75
2023-09-07T18:14:49.908Z,2.40
2023-09-07T18:17:23.230Z,3.17
2023-09-07T18:19:50.788Z,3.30
2023-09-07T18:22:24.234Z,3.17
2023-09-07T18:24:58.824Z,2.42
2023-09-07T18:27:32.241Z,3.28
2023-09-07T18:30:01.345Z,2.80
2023-09-07T18:32:36.359Z,3.03
2023-09-07T18:35:03.610Z,2.85
2023-09-07T18:37:40.225Z,2.85
2023-09-07T18:40:09.812Z,3.15
2023-09-07T18:42:43.285Z,2.97
2023-09-07T18:45:10.459Z,3.58
2023-09-07T18:47:45.305Z,3.30
2023-09-07T18:50:13.173Z,3.30
2023-09-07T18:52:46.249Z,3.65
2023-09-07T18:55:13.053Z,3.03
2023-09-07T18:57:48.014Z,3.00
2023-09-07T19:00:16.523Z,3.67
2023-09-07T19:02:43.845Z,4.00
2023-09-07T19:05:17.307Z,3.38
2023-09-07T19:07:43.945Z,3.35
2023-09-07T19:10:10.598Z,3.50
2023-09-07T19:12:43.248Z,3.67
2023-09-07T19:15:10.415Z,3.35
2023-09-07T19:17:43.346Z,3.67
2023-09-07T19:20:17.301Z,3.63
2023-09-07T19:22:50.248Z,3.78
2023-09-07T19:25:23.555Z,3.72
2023-09-07T19:27:56.304Z,4.35
2023-09-07T19:30:22.915Z,3.60
2023-09-07T19:32:49.608Z,4.05
2023-09-07T19:35:23.249Z,3.60
2023-09-07T19:37:49.843Z,4.97
2023-09-07T19:40:23.321Z,4.00
2023-09-07T19:42:57.245Z,4.45
2023-09-07T19:45:23.876Z,4.10
2023-09-07T19:47:57.431Z,4.32
2023-09-07T19:50:24.526Z,4.00
2023-09-07T19:52:51.207Z,4.03
2023-09-07T19:55:24.434Z,5.38
2023-09-07T19:57:57.285Z,4.05
2023-09-07T20:00:26.222Z,4.75
2023-09-07T20:02:53.157Z,4.68
2023-09-07T20:05:26.256Z,5.50
2023-09-07T20:07:53.420Z,4.72
2023-09-07T20:10:27.312Z,5.00
2023-09-07T20:12:53.944Z,5.93
2023-09-07T20:15:27.244Z,5.68
2023-09-07T20:17:54.737Z,5.15
2023-09-07T20:20:28.291Z,5.03
2023-09-07T20:22:54.887Z,5.28
2023-09-07T20:25:35.294Z,5.38
2023-09-07T20:28:02.337Z,4.90
2023-09-07T20:30:28.958Z,5.38
2023-09-07T20:33:02.293Z,5.45
2023-09-07T20:35:32.154Z,5.53
2023-09-07T20:38:06.235Z,5.88
2023-09-07T20:40:39.252Z,5.38
2023-09-07T20:43:08.228Z,5.47
2023-09-07T20:45:48.283Z,5.50
2023-09-07T20:48:15.066Z,5.88
2023-09-07T20:50:48.505Z,5.70
2023-09-07T20:53:16.412Z,6.00
2023-09-07T20:55:50.297Z,5.25
2023-09-07T20:58:17.060Z,5.03
2023-09-07T21:00:43.728Z,5.50
2023-09-07T21:03:17.433Z,5.43
2023-09-07T21:05:44.170Z,5.47
2023-09-07T21:08:17.264Z,5.25
2023-09-07T21:10:45.614Z,6.93
2023-09-07T21:13:13.015Z,5.95
2023-09-07T21:15:46.376Z,5.93
2023-09-07T21:18:13.139Z,5.22
2023-09-07T21:20:46.262Z,5.45
2023-09-07T21:23:13.157Z,6.22
2023-09-07T21:25:53.278Z,5.60
2023-09-07T21:28:33.553Z,5.88
2023-09-07T21:31:07.302Z,5.72
2023-09-07T21:33:35.377Z,5.73
2023-09-07T21:36:08.256Z,6.13
2023-09-07T21:38:41.283Z,5.50
2023-09-07T21:41:08.402Z,6.03
2023-09-07T21:43:41.291Z,6.65
2023-09-07T21:46:08.118Z,5.82
2023-09-07T21:48:41.444Z,6.57
2023-09-07T21:51:09.170Z,6.20
2023-09-07T21:53:40.708Z,6.38
2023-09-07T21:56:14.316Z,5.95
2023-09-07T21:58:41.015Z,5.63
2023-09-07T22:01:14.295Z,6.53
2023-09-07T22:03:41.105Z,6.53
2023-09-07T22:06:14.283Z,6.00
2023-09-07T22:08:41.018Z,6.05
2023-09-07T22:11:14.293Z,7.13
2023-09-07T22:13:40.959Z,6.68
2023-09-07T22:16:14.344Z,6.43
2023-09-07T22:18:41.147Z,5.93
2023-09-07T22:21:15.268Z,7.28
2023-09-07T22:23:44.100Z,6.18
2023-09-07T22:26:24.419Z,6.32
2023-09-07T22:28:51.147Z,6.20
2023-09-07T22:31:18.207Z,6.25
2023-09-07T22:33:51.344Z,6.03
2023-09-07T22:36:24.346Z,6.65
2023-09-07T22:38:57.337Z,6.95
2023-09-07T22:41:24.725Z,6.20
2023-09-07T22:44:01.431Z,6.15
2023-09-07T22:46:28.180Z,6.93
2023-09-07T22:49:01.358Z,6.93
2023-09-07T22:51:28.058Z,6.40
2023-09-07T22:53:54.887Z,7.43
2023-09-07T22:56:28.295Z,6.07
2023-09-07T22:58:55.033Z,6.07
2023-09-07T23:01:28.302Z,6.15
2023-09-07T23:03:55.129Z,6.57
2023-09-07T23:06:28.370Z,5.93
2023-09-07T23:09:02.398Z,6.03
2023-09-07T23:11:29.273Z,6.90
2023-09-07T23:14:02.303Z,6.68
2023-09-07T23:16:29.179Z,6.63
2023-09-07T23:19:02.537Z,6.25
2023-09-07T23:21:29.242Z,6.32
2023-09-07T23:23:55.887Z,6.65
2023-09-07T23:26:36.294Z,7.35
2023-09-07T23:29:10.151Z,6.97
2023-09-07T23:31:43.364Z,6.45
2023-09-07T23:34:10.584Z,6.25
2023-09-07T23:36:44.356Z,6.20
2023-09-07T23:39:17.488Z,6.60
2023-09-07T23:41:44.145Z,6.65
2023-09-07T23:44:17.289Z,7.43
2023-09-07T23:46:53.287Z,6.90
2023-09-07T23:49:19.965Z,7.00
2023-09-07T23:51:53.310Z,6.28
2023-09-07T23:54:19.952Z,6.35
2023-09-07T23:56:53.299Z,6.80
2023-09-07T23:59:19.960Z,6.05
